sensor_id;sensor_type;location;lat;lon;timestamp;temperature;humidity
15676;DHT22;7938;47.666;9.434;2022-11-20T05:01:59;5.90;99.90
15676;DHT22;7938;47.666;9.434;2022-11-20T05:04:26;5.90;99.90
15676;DHT22;7938;47.666;9.434;2022-11-20T05:06:53;5.90;99.90
15676;DHT22;7938;47.666;9.434;2022-11-20T05:09:19;5.90;99.90
15676;DHT22;7938;47.666;9.434;2022-11-20T05:11:46;5.90;99.90
15676;DHT22;7938;47.666;9.434;2022-11-20T05:14:13;5.90;99.90
15676;DHT22;7938;47.666;9.434;2022-11-20T05:16:40;6.00;99.90
15676;DHT22;7938;47.666;9.434;2022-11-20T05:19:09;6.00;99.90
15676;DHT22;7938;47.666;9.434;2022-11-20T05:21:35;5.90;99.90
15676;DHT22;7938;47.666;9.434;2022-11-20T05:24:03;5.90;99.90
15676;DHT22;7938;47.666;9.434;2022-11-20T05:26:30;5.90;99.90
15676;DHT22;7938;47.666;9.434;2022-11-20T05:28:57;5.90;99.90
15676;DHT22;7938;47.666;9.434;2022-11-20T05:31:24;5.90;99.90
15676;DHT22;7938;47.666;9.434;2022-11-20T05:33:51;5.90;99.90
15676;DHT22;7938;47.666;9.434;2022-11-20T05:36:20;5.90;99.90
15676;DHT22;7938;47.666;9.434;2022-11-20T05:38:46;5.90;99.90
15676;DHT22;7938;47.666;9.434;2022-11-20T05:41:16;5.80;99.90
15676;DHT22;7938;47.666;9.434;2022-11-20T05:43:45;5.80;99.90
15676;DHT22;7938;47.666;9.434;2022-11-20T05:46:13;5.80;99.90
15676;DHT22;7938;47.666;9.434;2022-11-20T05:48:41;5.80;99.90
15676;DHT22;7938;47.666;9.434;2022-11-20T05:51:11;5.80;99.90
15676;DHT22;7938;47.666;9.434;2022-11-20T05:53:40;5.80;99.90
15676;DHT22;7938;47.666;9.434;2022-11-20T05:56:09;5.80;99.90
15676;DHT22;7938;47.666;9.434;2022-11-20T05:58:37;5.80;99.90
15676;DHT22;7938;47.666;9.434;2022-11-20T06:01:05;5.50;99.90
15676;DHT22;7938;47.666;9.434;2022-11-20T06:03:32;5.50;99.90
15676;DHT22;7938;47.666;9.434;2022-11-20T06:05:59;5.40;99.90
15676;DHT22;7938;47.666;9.434;2022-11-20T06:08:26;5.30;99.90
15676;DHT22;7938;47.666;9.434;2022-11-20T06:10:55;5.30;99.90
15676;DHT22;7938;47.666;9.434;2022-11-20T06:13:22;5.30;99.90
15676;DHT22;7938;47.666;9.434;2022-11-20T06:15:49;5.30;99.90
15676;DHT22;7938;47.666;9.434;2022-11-20T06:18:16;5.40;99.90
15676;DHT22;7938;47.666;9.434;2022-11-20T06:20:45;5.50;99.90
15676;DHT22;7938;47.666;9.434;2022-11-20T06:23:12;5.50;99.90
15676;DHT22;7938;47.666;9.434;2022-11-20T06:25:41;5.60;99.90
15676;DHT22;7938;47.666;9.434;2022-11-20T06:28:09;5.60;99.90
15676;DHT22;7938;47.666;9.434;2022-11-20T06:30:36;5.80;99.90
15676;DHT22;7938;47.666;9.434;2022-11-20T06:33:03;5.80;99.90
15676;DHT22;7938;47.666;9.434;2022-11-20T06:35:30;5.90;99.90
15676;DHT22;7938;47.666;9.434;2022-11-20T06:37:57;6.10;99.90
15676;DHT22;7938;47.666;9.434;2022-11-20T06:40:24;5.80;99.90
15676;DHT22;7938;47.666;9.434;2022-11-20T06:42:52;5.80;99.90
15676;DHT22;7938;47.666;9.434;2022-11-20T06:45:21;5.70;99.90
15676;DHT22;7938;47.666;9.434;2022-11-20T06:47:48;5.70;99.90
15676;DHT22;7938;47.666;9.434;2022-11-20T06:50:15;5.60;99.90
15676;DHT22;7938;47.666;9.434;2022-11-20T06:52:41;5.60;99.90
15676;DHT22;7938;47.666;9.434;2022-11-20T06:55:08;5.70;99.90
15676;DHT22;7938;47.666;9.434;2022-11-20T06:57:35;5.60;99.90
15676;DHT22;7938;47.666;9.434;2022-11-20T07:00:03;5.70;99.90
15676;DHT22;7938;47.666;9.434;2022-11-20T07:02:31;5.70;99.90
15676;DHT22;7938;47.666;9.434;2022-11-20T07:04:58;5.80;99.90
15676;DHT22;7938;47.666;9.434;2022-11-20T07:07:25;5.70;99.90
15676;DHT22;7938;47.666;9.434;2022-11-20T07:09:51;5.70;99.90
15676;DHT22;7938;47.666;9.434;2022-11-20T07:12:18;5.70;99.90
15676;DHT22;7938;47.666;9.434;2022-11-20T07:14:45;5.70;99.90
15676;DHT22;7938;47.666;9.434;2022-11-20T07:17:12;5.70;99.90
15676;DHT22;7938;47.666;9.434;2022-11-20T07:19:40;5.70;99.90
15676;DHT22;7938;47.666;9.434;2022-11-20T07:22:08;5.80;99.90
15676;DHT22;7938;47.666;9.434;2022-11-20T07:24:35;5.80;99.90
15676;DHT22;7938;47.666;9.434;2022-11-20T07:27:02;6.00;99.90
15676;DHT22;7938;47.666;9.434;2022-11-20T07:29:29;6.10;99.90
15676;DHT22;7938;47.666;9.434;2022-11-20T07:31:56;6.10;99.90
15676;DHT22;7938;47.666;9.434;2022-11-20T07:34:23;6.20;99.90
15676;DHT22;7938;47.666;9.434;2022-11-20T07:36:51;6.20;99.90
15676;DHT22;7938;47.666;9.434;2022-11-20T07:39:18;6.20;99.90
15676;DHT22;7938;47.666;9.434;2022-11-20T07:41:45;6.30;99.90
15676;DHT22;7938;47.666;9.434;2022-11-20T07:44:12;6.30;99.90
15676;DHT22;7938;47.666;9.434;2022-11-20T07:46:38;6.30;99.90
15676;DHT22;7938;47.666;9.434;2022-11-20T07:49:05;6.30;99.90
15676;DHT22;7938;47.666;9.434;2022-11-20T07:51:32;6.30;99.90
15676;DHT22;7938;47.666;9.434;2022-11-20T07:54:00;6.40;99.90
15676;DHT22;7938;47.666;9.434;2022-11-20T07:56:27;6.50;99.90
15676;DHT22;7938;47.666;9.434;2022-11-20T07:58:54;6.40;99.90
15676;DHT22;7938;47.666;9.434;2022-11-20T08:01:21;6.40;99.90
15676;DHT22;7938;47.666;9.434;2022-11-20T08:03:48;6.40;99.90
15676;DHT22;7938;47.666;9.434;2022-11-20T08:06:15;6.50;99.90
15676;DHT22;7938;47.666;9.434;2022-11-20T08:08:43;6.60;99.90
15676;DHT22;7938;47.666;9.434;2022-11-20T08:11:11;6.40;99.90
15676;DHT22;7938;47.666;9.434;2022-11-20T08:13:55;6.40;99.90
15676;DHT22;7938;47.666;9.434;2022-11-20T08:16:42;6.30;99.90
15676;DHT22;7938;47.666;9.434;2022-11-20T08:19:09;6.30;99.90
15676;DHT22;7938;47.666;9.434;2022-11-20T08:21:37;6.30;99.90
15676;DHT22;7938;47.666;9.434;2022-11-20T08:24:04;6.20;99.90
15676;DHT22;7938;47.666;9.434;2022-11-20T08:26:34;6.20;99.90
15676;DHT22;7938;47.666;9.434;2022-11-20T08:29:02;6.50;99.90
15676;DHT22;7938;47.666;9.434;2022-11-20T08:31:30;6.60;99.90
15676;DHT22;7938;47.666;9.434;2022-11-20T08:33:57;6.70;99.90
15676;DHT22;7938;47.666;9.434;2022-11-20T08:36:24;6.70;99.90
15676;DHT22;7938;47.666;9.434;2022-11-20T08:38:52;6.80;99.90
15676;DHT22;7938;47.666;9.434;2022-11-20T08:41:19;6.80;99.90
15676;DHT22;7938;47.666;9.434;2022-11-20T08:43:55;6.90;99.90
15676;DHT22;7938;47.666;9.434;2022-11-20T08:46:24;6.80;99.90
15676;DHT22;7938;47.666;9.434;2022-11-20T08:48:51;7.00;99.90
15676;DHT22;7938;47.666;9.434;2022-11-20T08:51:19;7.10;99.90
15676;DHT22;7938;47.666;9.434;2022-11-20T08:53:46;7.20;99.90
15676;DHT22;7938;47.666;9.434;2022-11-20T08:56:15;7.20;99.90
15676;DHT22;7938;47.666;9.434;2022-11-20T08:58:42;7.20;99.90
15676;DHT22;7938;47.666;9.434;2022-11-20T09:01:10;7.30;99.90
15676;DHT22;7938;47.666;9.434;2022-11-20T09:03:37;7.30;99.90
15676;DHT22;7938;47.666;9.434;2022-11-20T09:06:06;7.30;99.90
15676;DHT22;7938;47.666;9.434;2022-11-20T09:08:34;7.30;99.90
15676;DHT22;7938;47.666;9.434;2022-11-20T09:11:02;7.30;99.90
15676;DHT22;7938;47.666;9.434;2022-11-20T09:13:30;7.40;99.90
15676;DHT22;7938;47.666;9.434;2022-11-20T09:15:59;7.40;99.90
15676;DHT22;7938;47.666;9.434;2022-11-20T09:18:28;7.40;99.90
15676;DHT22;7938;47.666;9.434;2022-11-20T09:20:57;7.50;99.90
15676;DHT22;7938;47.666;9.434;2022-11-20T09:23:25;7.50;99.90
15676;DHT22;7938;47.666;9.434;2022-11-20T09:25:52;7.70;99.90
15676;DHT22;7938;47.666;9.434;2022-11-20T09:28:21;7.80;99.90
15676;DHT22;7938;47.666;9.434;2022-11-20T09:30:47;7.80;99.90
15676;DHT22;7938;47.666;9.434;2022-11-20T09:33:14;7.70;99.90
15676;DHT22;7938;47.666;9.434;2022-11-20T09:35:43;7.90;99.90
15676;DHT22;7938;47.666;9.434;2022-11-20T09:38:11;7.90;99.90
15676;DHT22;7938;47.666;9.434;2022-11-20T09:40:43;7.90;99.90
15676;DHT22;7938;47.666;9.434;2022-11-20T09:43:14;7.90;99.90
15676;DHT22;7938;47.666;9.434;2022-11-20T09:45:58;7.90;99.90
15676;DHT22;7938;47.666;9.434;2022-11-20T09:51:26;7.90;99.90
15676;DHT22;7938;47.666;9.434;2022-11-20T09:54:05;7.90;99.90
15676;DHT22;7938;47.666;9.434;2022-11-20T09:56:34;7.80;99.90
15676;DHT22;7938;47.666;9.434;2022-11-20T09:59:06;7.90;99.90
15676;DHT22;7938;47.666;9.434;2022-11-20T10:01:35;7.70;99.90
15676;DHT22;7938;47.666;9.434;2022-11-20T10:04:04;7.70;99.90
15676;DHT22;7938;47.666;9.434;2022-11-20T10:06:39;7.60;99.90
15676;DHT22;7938;47.666;9.434;2022-11-20T10:09:19;7.50;99.90
15676;DHT22;7938;47.666;9.434;2022-11-20T10:11:55;7.50;99.90
15676;DHT22;7938;47.666;9.434;2022-11-20T10:14:33;7.50;99.90
15676;DHT22;7938;47.666;9.434;2022-11-20T10:17:09;7.50;99.90
15676;DHT22;7938;47.666;9.434;2022-11-20T10:19:56;7.50;99.90
15676;DHT22;7938;47.666;9.434;2022-11-20T10:22:39;7.40;99.90
15676;DHT22;7938;47.666;9.434;2022-11-20T10:25:14;7.50;99.90
15676;DHT22;7938;47.666;9.434;2022-11-20T10:28:02;7.60;99.90
15676;DHT22;7938;47.666;9.434;2022-11-20T10:30:34;7.90;99.90
15676;DHT22;7938;47.666;9.434;2022-11-20T10:33:06;7.90;99.90
15676;DHT22;7938;47.666;9.434;2022-11-20T10:35:39;8.10;99.90
15676;DHT22;7938;47.666;9.434;2022-11-20T10:38:12;8.10;99.90
15676;DHT22;7938;47.666;9.434;2022-11-20T10:40:43;8.30;99.90
15676;DHT22;7938;47.666;9.434;2022-11-20T10:43:14;8.40;99.90
15676;DHT22;7938;47.666;9.434;2022-11-20T10:45:50;8.50;99.90
15676;DHT22;7938;47.666;9.434;2022-11-20T10:48:22;8.60;99.90
15676;DHT22;7938;47.666;9.434;2022-11-20T10:51:12;8.50;99.90
15676;DHT22;7938;47.666;9.434;2022-11-20T10:54:05;8.60;99.90
15676;DHT22;7938;47.666;9.434;2022-11-20T10:56:39;8.60;99.90
15676;DHT22;7938;47.666;9.434;2022-11-20T10:59:31;8.50;99.90
15676;DHT22;7938;47.666;9.434;2022-11-20T11:02:12;8.70;99.90
15676;DHT22;7938;47.666;9.434;2022-11-20T11:04:43;8.70;99.90
15676;DHT22;7938;47.666;9.434;2022-11-20T11:07:16;9.00;99.90
15676;DHT22;7938;47.666;9.434;2022-11-20T11:09:48;9.10;99.90
15676;DHT22;7938;47.666;9.434;2022-11-20T11:12:15;9.00;99.90
15676;DHT22;7938;47.666;9.434;2022-11-20T11:14:44;9.00;99.90
15676;DHT22;7938;47.666;9.434;2022-11-20T11:17:24;8.90;99.90
15676;DHT22;7938;47.666;9.434;2022-11-20T11:20:14;8.90;99.90
15676;DHT22;7938;47.666;9.434;2022-11-20T11:22:44;8.90;99.90
15676;DHT22;7938;47.666;9.434;2022-11-20T11:25:25;8.80;99.90
15676;DHT22;7938;47.666;9.434;2022-11-20T11:27:53;8.60;99.90
15676;DHT22;7938;47.666;9.434;2022-11-20T11:30:22;8.60;99.90
15676;DHT22;7938;47.666;9.434;2022-11-20T11:32:49;8.60;99.90
15676;DHT22;7938;47.666;9.434;2022-11-20T11:35:22;8.60;99.90
15676;DHT22;7938;47.666;9.434;2022-11-20T11:37:49;8.40;99.90
15676;DHT22;7938;47.666;9.434;2022-11-20T11:40:17;8.30;99.90
15676;DHT22;7938;47.666;9.434;2022-11-20T11:42:52;8.20;99.90
15676;DHT22;7938;47.666;9.434;2022-11-20T11:45:20;8.20;99.90
15676;DHT22;7938;47.666;9.434;2022-11-20T11:47:48;8.10;99.90
15676;DHT22;7938;47.666;9.434;2022-11-20T11:50:20;8.00;99.90
15676;DHT22;7938;47.666;9.434;2022-11-20T11:52:54;8.10;99.90
15676;DHT22;7938;47.666;9.434;2022-11-20T11:55:29;8.20;99.90
15676;DHT22;7938;47.666;9.434;2022-11-20T11:58:13;8.30;99.90
15676;DHT22;7938;47.666;9.434;2022-11-20T12:00:48;8.30;99.90
15676;DHT22;7938;47.666;9.434;2022-11-20T12:03:19;8.30;99.90
15676;DHT22;7938;47.666;9.434;2022-11-20T12:05:50;8.30;99.90
15676;DHT22;7938;47.666;9.434;2022-11-20T12:08:23;8.30;99.90
15676;DHT22;7938;47.666;9.434;2022-11-20T12:10:57;8.30;99.90
15676;DHT22;7938;47.666;9.434;2022-11-20T12:13:39;8.30;99.90
15676;DHT22;7938;47.666;9.434;2022-11-20T12:16:12;8.30;99.90
15676;DHT22;7938;47.666;9.434;2022-11-20T12:18:40;8.10;99.90
15676;DHT22;7938;47.666;9.434;2022-11-20T12:21:19;8.10;99.90
15676;DHT22;7938;47.666;9.434;2022-11-20T12:24:23;8.10;99.90
15676;DHT22;7938;47.666;9.434;2022-11-20T12:27:05;8.00;99.90
15676;DHT22;7938;47.666;9.434;2022-11-20T12:29:47;7.90;99.90
15676;DHT22;7938;47.666;9.434;2022-11-20T12:32:38;7.90;99.90
15676;DHT22;7938;47.666;9.434;2022-11-20T12:35:19;8.00;99.90
15676;DHT22;7938;47.666;9.434;2022-11-20T12:38:01;8.00;99.90
15676;DHT22;7938;47.666;9.434;2022-11-20T12:40:40;8.20;99.90
15676;DHT22;7938;47.666;9.434;2022-11-20T12:43:17;8.20;99.90
15676;DHT22;7938;47.666;9.434;2022-11-20T12:46:12;8.40;99.90
15676;DHT22;7938;47.666;9.434;2022-11-20T12:49:04;8.30;99.90
15676;DHT22;7938;47.666;9.434;2022-11-20T12:51:48;8.40;99.90
15676;DHT22;7938;47.666;9.434;2022-11-20T12:54:29;8.30;99.90
15676;DHT22;7938;47.666;9.434;2022-11-20T12:57:04;8.40;99.90
15676;DHT22;7938;47.666;9.434;2022-11-20T12:59:54;8.30;99.90
15676;DHT22;7938;47.666;9.434;2022-11-20T13:02:30;8.10;99.90
15676;DHT22;7938;47.666;9.434;2022-11-20T13:05:17;8.10;99.90
15676;DHT22;7938;47.666;9.434;2022-11-20T13:07:46;8.10;99.90
15676;DHT22;7938;47.666;9.434;2022-11-20T13:10:20;8.40;99.90
15676;DHT22;7938;47.666;9.434;2022-11-20T13:12:51;8.30;99.90
15676;DHT22;7938;47.666;9.434;2022-11-20T13:15:33;8.30;99.90
15676;DHT22;7938;47.666;9.434;2022-11-20T13:18:06;8.50;99.90
15676;DHT22;7938;47.666;9.434;2022-11-20T13:20:35;8.40;99.90
15676;DHT22;7938;47.666;9.434;2022-11-20T13:23:02;8.40;99.90
15676;DHT22;7938;47.666;9.434;2022-11-20T13:25:30;8.20;99.90
15676;DHT22;7938;47.666;9.434;2022-11-20T13:27:59;8.20;99.90
15676;DHT22;7938;47.666;9.434;2022-11-20T13:30:27;8.20;99.90
15676;DHT22;7938;47.666;9.434;2022-11-20T13:32:56;8.20;99.90
15676;DHT22;7938;47.666;9.434;2022-11-20T13:35:29;8.10;99.90
15676;DHT22;7938;47.666;9.434;2022-11-20T13:38:05;8.10;99.90
15676;DHT22;7938;47.666;9.434;2022-11-20T13:40:33;8.30;99.90
15676;DHT22;7938;47.666;9.434;2022-11-20T13:43:21;8.40;99.90
15676;DHT22;7938;47.666;9.434;2022-11-20T13:45:57;8.30;99.90
15676;DHT22;7938;47.666;9.434;2022-11-20T13:48:26;8.40;99.90
15676;DHT22;7938;47.666;9.434;2022-11-20T13:51:04;8.30;99.90
15676;DHT22;7938;47.666;9.434;2022-11-20T13:53:53;8.30;99.90
15676;DHT22;7938;47.666;9.434;2022-11-20T13:56:27;8.40;99.90
15676;DHT22;7938;47.666;9.434;2022-11-20T13:59:04;8.30;99.90
15676;DHT22;7938;47.666;9.434;2022-11-20T14:01:33;8.30;99.90
15676;DHT22;7938;47.666;9.434;2022-11-20T14:04:06;8.40;99.90
15676;DHT22;7938;47.666;9.434;2022-11-20T14:06:42;8.30;99.90
15676;DHT22;7938;47.666;9.434;2022-11-20T14:09:11;8.30;99.90
15676;DHT22;7938;47.666;9.434;2022-11-20T14:11:46;8.30;99.90
15676;DHT22;7938;47.666;9.434;2022-11-20T14:14:15;8.30;99.90
15676;DHT22;7938;47.666;9.434;2022-11-20T14:16:43;8.20;99.90
15676;DHT22;7938;47.666;9.434;2022-11-20T14:19:28;8.10;99.90
15676;DHT22;7938;47.666;9.434;2022-11-20T14:22:09;8.20;99.90
15676;DHT22;7938;47.666;9.434;2022-11-20T14:24:37;8.30;99.90
15676;DHT22;7938;47.666;9.434;2022-11-20T14:27:04;8.40;99.90
15676;DHT22;7938;47.666;9.434;2022-11-20T14:29:35;8.40;99.90
15676;DHT22;7938;47.666;9.434;2022-11-20T14:32:03;8.50;99.90
15676;DHT22;7938;47.666;9.434;2022-11-20T14:34:33;8.50;99.90
15676;DHT22;7938;47.666;9.434;2022-11-20T14:37:10;8.50;99.90
15676;DHT22;7938;47.666;9.434;2022-11-20T14:39:41;8.50;99.90
15676;DHT22;7938;47.666;9.434;2022-11-20T14:42:15;8.40;99.90
15676;DHT22;7938;47.666;9.434;2022-11-20T14:44:43;8.20;99.90
15676;DHT22;7938;47.666;9.434;2022-11-20T14:47:12;8.10;99.90
15676;DHT22;7938;47.666;9.434;2022-11-20T14:49:40;7.90;99.90
15676;DHT22;7938;47.666;9.434;2022-11-20T14:52:14;7.80;99.90
15676;DHT22;7938;47.666;9.434;2022-11-20T14:54:45;7.70;99.90
15676;DHT22;7938;47.666;9.434;2022-11-20T14:57:22;7.70;99.90
15676;DHT22;7938;47.666;9.434;2022-11-20T14:59:49;7.50;99.90
15676;DHT22;7938;47.666;9.434;2022-11-20T15:02:16;7.50;99.90
15676;DHT22;7938;47.666;9.434;2022-11-20T15:04:56;7.40;99.90
15676;DHT22;7938;47.666;9.434;2022-11-20T15:07:27;7.30;99.90
15676;DHT22;7938;47.666;9.434;2022-11-20T15:10:05;7.10;99.90
15676;DHT22;7938;47.666;9.434;2022-11-20T15:12:33;7.10;99.90
15676;DHT22;7938;47.666;9.434;2022-11-20T15:15:01;7.00;99.90
15676;DHT22;7938;47.666;9.434;2022-11-20T15:17:28;6.90;99.90
15676;DHT22;7938;47.666;9.434;2022-11-20T15:22:25;6.80;99.90
15676;DHT22;7938;47.666;9.434;2022-11-20T15:24:52;6.90;99.90
15676;DHT22;7938;47.666;9.434;2022-11-20T15:27:19;6.80;99.90
15676;DHT22;7938;47.666;9.434;2022-11-20T15:29:46;6.70;99.90
15676;DHT22;7938;47.666;9.434;2022-11-20T15:32:12;6.70;99.90
15676;DHT22;7938;47.666;9.434;2022-11-20T15:34:39;6.50;99.90
15676;DHT22;7938;47.666;9.434;2022-11-20T15:37:06;6.40;99.90
15676;DHT22;7938;47.666;9.434;2022-11-20T15:39:34;6.50;99.90
15676;DHT22;7938;47.666;9.434;2022-11-20T15:42:01;6.40;99.90
15676;DHT22;7938;47.666;9.434;2022-11-20T15:44:28;6.30;99.90
15676;DHT22;7938;47.666;9.434;2022-11-20T15:46:55;6.20;99.90
15676;DHT22;7938;47.666;9.434;2022-11-20T15:49:22;6.10;99.90
15676;DHT22;7938;47.666;9.434;2022-11-20T15:51:50;6.00;99.90
15676;DHT22;7938;47.666;9.434;2022-11-20T15:54:19;6.00;99.90
15676;DHT22;7938;47.666;9.434;2022-11-20T15:56:49;5.90;99.90
15676;DHT22;7938;47.666;9.434;2022-11-20T15:59:17;5.90;99.90
15676;DHT22;7938;47.666;9.434;2022-11-20T16:01:44;5.80;99.90
15676;DHT22;7938;47.666;9.434;2022-11-20T16:04:13;5.80;99.90
15676;DHT22;7938;47.666;9.434;2022-11-20T16:06:40;5.60;99.90
15676;DHT22;7938;47.666;9.434;2022-11-20T16:09:07;5.50;99.90
15676;DHT22;7938;47.666;9.434;2022-11-20T16:11:35;5.40;99.90
15676;DHT22;7938;47.666;9.434;2022-11-20T16:14:04;5.40;99.90
15676;DHT22;7938;47.666;9.434;2022-11-20T16:16:49;5.30;99.90
15676;DHT22;7938;47.666;9.434;2022-11-20T16:19:16;5.20;99.90
15676;DHT22;7938;47.666;9.434;2022-11-20T16:21:43;5.20;99.90
15676;DHT22;7938;47.666;9.434;2022-11-20T16:24:12;5.20;99.90
15676;DHT22;7938;47.666;9.434;2022-11-20T16:26:40;5.20;99.90
15676;DHT22;7938;47.666;9.434;2022-11-20T16:29:08;5.10;99.90
15676;DHT22;7938;47.666;9.434;2022-11-20T16:31:36;5.10;99.90
15676;DHT22;7938;47.666;9.434;2022-11-20T16:34:04;5.20;99.90
15676;DHT22;7938;47.666;9.434;2022-11-20T16:36:32;5.30;99.90
15676;DHT22;7938;47.666;9.434;2022-11-20T16:39:00;5.10;99.90
15676;DHT22;7938;47.666;9.434;2022-11-20T16:41:29;4.90;99.90
15676;DHT22;7938;47.666;9.434;2022-11-20T16:43:57;4.90;99.90
15676;DHT22;7938;47.666;9.434;2022-11-20T16:46:27;4.80;99.90
15676;DHT22;7938;47.666;9.434;2022-11-20T16:48:55;4.90;99.90
15676;DHT22;7938;47.666;9.434;2022-11-20T16:51:23;4.90;99.90
15676;DHT22;7938;47.666;9.434;2022-11-20T16:53:51;4.90;99.90
15676;DHT22;7938;47.666;9.434;2022-11-20T16:56:20;4.90;99.90
15676;DHT22;7938;47.666;9.434;2022-11-20T16:58:49;4.80;99.90
15676;DHT22;7938;47.666;9.434;2022-11-20T17:01:17;4.80;99.90
15676;DHT22;7938;47.666;9.434;2022-11-20T17:03:53;4.80;99.90
15676;DHT22;7938;47.666;9.434;2022-11-20T17:06:22;4.80;99.90
15676;DHT22;7938;47.666;9.434;2022-11-20T17:08:49;4.80;99.90
15676;DHT22;7938;47.666;9.434;2022-11-20T17:11:17;4.80;99.90
15676;DHT22;7938;47.666;9.434;2022-11-20T17:13:45;4.80;99.90
15676;DHT22;7938;47.666;9.434;2022-11-20T17:16:14;4.80;99.90
15676;DHT22;7938;47.666;9.434;2022-11-20T17:18:41;4.80;99.90
15676;DHT22;7938;47.666;9.434;2022-11-20T17:21:10;4.70;99.90
15676;DHT22;7938;47.666;9.434;2022-11-20T17:23:39;4.70;99.90
15676;DHT22;7938;47.666;9.434;2022-11-20T17:26:08;4.60;99.90
15676;DHT22;7938;47.666;9.434;2022-11-20T17:28:36;4.60;99.90
15676;DHT22;7938;47.666;9.434;2022-11-20T17:31:05;4.50;99.90
15676;DHT22;7938;47.666;9.434;2022-11-20T17:33:34;4.50;99.90
15676;DHT22;7938;47.666;9.434;2022-11-20T17:36:01;4.50;99.90
15676;DHT22;7938;47.666;9.434;2022-11-20T17:38:29;4.40;99.90
15676;DHT22;7938;47.666;9.434;2022-11-20T17:41:01;4.50;99.90
15676;DHT22;7938;47.666;9.434;2022-11-20T17:43:29;4.50;99.90
15676;DHT22;7938;47.666;9.434;2022-11-20T17:45:55;4.50;99.90
15676;DHT22;7938;47.666;9.434;2022-11-20T17:48:22;4.60;99.90
15676;DHT22;7938;47.666;9.434;2022-11-20T17:50:50;5.10;99.90
15676;DHT22;7938;47.666;9.434;2022-11-20T17:53:16;4.60;99.90
15676;DHT22;7938;47.666;9.434;2022-11-20T17:55:54;4.70;99.90
15676;DHT22;7938;47.666;9.434;2022-11-20T17:58:38;4.70;99.90
15676;DHT22;7938;47.666;9.434;2022-11-20T18:01:06;5.10;99.90
15676;DHT22;7938;47.666;9.434;2022-11-20T18:03:33;5.10;99.90
15676;DHT22;7938;47.666;9.434;2022-11-20T18:06:07;5.40;99.90
15676;DHT22;7938;47.666;9.434;2022-11-20T18:08:34;5.50;99.90
15676;DHT22;7938;47.666;9.434;2022-11-20T18:11:10;5.60;99.90
15676;DHT22;7938;47.666;9.434;2022-11-20T18:13:38;5.70;99.90
15676;DHT22;7938;47.666;9.434;2022-11-20T18:18:49;6.00;99.90
15676;DHT22;7938;47.666;9.434;2022-11-20T18:21:19;6.10;99.90
15676;DHT22;7938;47.666;9.434;2022-11-20T18:23:45;6.10;99.90
15676;DHT22;7938;47.666;9.434;2022-11-20T18:26:14;6.20;99.90
15676;DHT22;7938;47.666;9.434;2022-11-20T18:28:41;6.40;99.90
15676;DHT22;7938;47.666;9.434;2022-11-20T18:31:08;6.50;99.90
15676;DHT22;7938;47.666;9.434;2022-11-20T18:33:35;6.50;99.90
15676;DHT22;7938;47.666;9.434;2022-11-20T18:36:08;6.50;99.90
15676;DHT22;7938;47.666;9.434;2022-11-20T18:38:35;6.50;99.90
15676;DHT22;7938;47.666;9.434;2022-11-20T18:41:05;6.70;99.90
15676;DHT22;7938;47.666;9.434;2022-11-20T18:43:33;6.70;99.90
15676;DHT22;7938;47.666;9.434;2022-11-20T18:46:19;6.70;99.90
15676;DHT22;7938;47.666;9.434;2022-11-20T18:48:46;6.70;99.90
15676;DHT22;7938;47.666;9.434;2022-11-20T18:51:13;6.70;99.90
15676;DHT22;7938;47.666;9.434;2022-11-20T18:53:41;6.70;99.90
15676;DHT22;7938;47.666;9.434;2022-11-20T18:56:08;6.70;99.90
15676;DHT22;7938;47.666;9.434;2022-11-20T18:58:36;6.70;99.90
15676;DHT22;7938;47.666;9.434;2022-11-20T19:01:05;6.70;99.90
15676;DHT22;7938;47.666;9.434;2022-11-20T19:03:32;6.70;99.90
15676;DHT22;7938;47.666;9.434;2022-11-20T19:06:00;6.80;99.90
15676;DHT22;7938;47.666;9.434;2022-11-20T19:08:27;6.90;99.90
15676;DHT22;7938;47.666;9.434;2022-11-20T19:10:54;6.90;99.90
15676;DHT22;7938;47.666;9.434;2022-11-20T19:13:21;6.90;99.90
15676;DHT22;7938;47.666;9.434;2022-11-20T19:15:49;6.90;99.90
15676;DHT22;7938;47.666;9.434;2022-11-20T19:18:16;7.00;99.90
15676;DHT22;7938;47.666;9.434;2022-11-20T19:20:43;6.70;99.90
15676;DHT22;7938;47.666;9.434;2022-11-20T19:23:09;7.00;99.90
15676;DHT22;7938;47.666;9.434;2022-11-20T19:25:37;6.90;99.90
15676;DHT22;7938;47.666;9.434;2022-11-20T19:28:04;7.00;99.90
15676;DHT22;7938;47.666;9.434;2022-11-20T19:30:32;6.90;99.90
15676;DHT22;7938;47.666;9.434;2022-11-20T19:33:00;6.90;99.90
15676;DHT22;7938;47.666;9.434;2022-11-20T19:35:27;6.90;99.90
15676;DHT22;7938;47.666;9.434;2022-11-20T19:37:54;7.00;99.90
15676;DHT22;7938;47.666;9.434;2022-11-20T19:40:21;7.00;99.90
15676;DHT22;7938;47.666;9.434;2022-11-20T19:42:48;7.00;99.90
15676;DHT22;7938;47.666;9.434;2022-11-20T19:45:15;6.80;99.90
15676;DHT22;7938;47.666;9.434;2022-11-20T19:47:42;6.80;99.90
15676;DHT22;7938;47.666;9.434;2022-11-20T19:50:10;6.70;99.90
15676;DHT22;7938;47.666;9.434;2022-11-20T19:52:37;6.70;99.90
15676;DHT22;7938;47.666;9.434;2022-11-20T19:55:04;6.60;99.90
15676;DHT22;7938;47.666;9.434;2022-11-20T19:57:31;6.40;99.90
15676;DHT22;7938;47.666;9.434;2022-11-20T19:59:58;6.20;99.90
15676;DHT22;7938;47.666;9.434;2022-11-20T20:02:25;6.00;99.90
15676;DHT22;7938;47.666;9.434;2022-11-20T20:04:52;5.80;99.90
15676;DHT22;7938;47.666;9.434;2022-11-20T20:07:20;5.60;99.90
15676;DHT22;7938;47.666;9.434;2022-11-20T20:09:47;5.50;99.90
15676;DHT22;7938;47.666;9.434;2022-11-20T20:12:14;5.40;99.90
15676;DHT22;7938;47.666;9.434;2022-11-20T20:14:41;5.30;99.90
15676;DHT22;7938;47.666;9.434;2022-11-20T20:17:07;5.30;99.90
15676;DHT22;7938;47.666;9.434;2022-11-20T20:19:34;5.40;99.90
15676;DHT22;7938;47.666;9.434;2022-11-20T20:22:01;5.30;99.90
15676;DHT22;7938;47.666;9.434;2022-11-20T20:24:29;5.20;99.90
15676;DHT22;7938;47.666;9.434;2022-11-20T20:26:56;5.20;99.90
15676;DHT22;7938;47.666;9.434;2022-11-20T20:29:23;5.20;99.90
15676;DHT22;7938;47.666;9.434;2022-11-20T20:31:50;5.20;99.90
15676;DHT22;7938;47.666;9.434;2022-11-20T20:34:17;5.10;99.90
15676;DHT22;7938;47.666;9.434;2022-11-20T20:36:44;5.10;99.90
15676;DHT22;7938;47.666;9.434;2022-11-20T20:39:11;5.10;99.90
15676;DHT22;7938;47.666;9.434;2022-11-20T20:41:39;5.10;99.90
15676;DHT22;7938;47.666;9.434;2022-11-20T20:44:06;5.00;99.90
15676;DHT22;7938;47.666;9.434;2022-11-20T20:46:50;4.90;99.90
15676;DHT22;7938;47.666;9.434;2022-11-20T20:49:18;4.80;99.90
15676;DHT22;7938;47.666;9.434;2022-11-20T20:51:44;4.90;99.90
15676;DHT22;7938;47.666;9.434;2022-11-20T20:54:11;4.90;99.90
15676;DHT22;7938;47.666;9.434;2022-11-20T20:56:40;4.90;99.90
15676;DHT22;7938;47.666;9.434;2022-11-20T20:59:07;4.80;99.90
15676;DHT22;7938;47.666;9.434;2022-11-20T21:01:34;4.90;99.90
15676;DHT22;7938;47.666;9.434;2022-11-20T21:04:01;5.60;99.90
15676;DHT22;7938;47.666;9.434;2022-11-20T21:06:28;4.90;99.90
15676;DHT22;7938;47.666;9.434;2022-11-20T21:08:55;4.80;99.90
15676;DHT22;7938;47.666;9.434;2022-11-20T21:13:52;4.70;99.90
15676;DHT22;7938;47.666;9.434;2022-11-20T21:16:19;4.70;99.90
15676;DHT22;7938;47.666;9.434;2022-11-20T21:18:47;4.80;99.90
15676;DHT22;7938;47.666;9.434;2022-11-20T21:21:16;4.70;99.90
15676;DHT22;7938;47.666;9.434;2022-11-20T21:24:12;4.70;99.90
15676;DHT22;7938;47.666;9.434;2022-11-20T21:26:39;4.80;99.90
15676;DHT22;7938;47.666;9.434;2022-11-20T21:29:07;4.80;99.90
15676;DHT22;7938;47.666;9.434;2022-11-20T21:31:34;4.90;99.90
15676;DHT22;7938;47.666;9.434;2022-11-20T21:34:02;4.90;99.90